Time;durP1;ratioP1;P1;durP2;ratioP2;P2;SDS_P1;SDS_P2;PMS_P1;PMS_P2;Temp;Humidity;BMP_temperature;BMP_pressure;BME280_temperature;BME280_humidity;BME280_pressure;Samples;Min_cycle;Max_cycle;Signal;HPM_P1;HPM_P2
2023/03/15 00:01:07;;;;;;;3.80;1.90;;;6.70;93.40;;;;;;925754;151;27376;-78
2023/03/15 00:03:36;;;;;;;2.53;1.93;;;6.60;93.40;;;;;;926110;151;27390;-79
2023/03/15 00:06:00;;;;;;;2.60;1.87;;;6.50;93.30;;;;;;926626;151;27452;-78
2023/03/15 00:08:26;;;;;;;6.03;2.00;;;6.50;93.40;;;;;;922640;151;27477;-79
2023/03/15 00:10:53;;;;;;;2.77;1.97;;;6.40;93.40;;;;;;926474;151;27414;-78
2023/03/15 00:13:20;;;;;;;3.77;2.50;;;6.30;93.40;;;;;;927210;151;27488;-78
2023/03/15 00:15:46;;;;;;;4.40;1.80;;;6.20;93.50;;;;;;926526;151;27443;-78
2023/03/15 00:18:13;;;;;;;4.30;2.20;;;6.20;93.60;;;;;;926114;151;27289;-78
2023/03/15 00:20:39;;;;;;;2.17;1.97;;;6.10;93.70;;;;;;927514;151;27366;-78
2023/03/15 00:23:06;;;;;;;3.53;2.40;;;6.00;93.80;;;;;;926206;151;27399;-78
2023/03/15 00:25:32;;;;;;;4.27;2.07;;;5.90;93.80;;;;;;924642;151;27488;-78
2023/03/15 00:27:59;;;;;;;3.30;1.93;;;5.80;93.80;;;;;;924968;151;27736;-78
2023/03/15 00:30:26;;;;;;;3.33;2.20;;;5.80;93.80;;;;;;927647;151;27370;-77
2023/03/15 00:32:55;;;;;;;4.70;2.10;;;5.70;93.90;;;;;;924553;151;27406;-79
2023/03/15 00:35:22;;;;;;;2.63;1.77;;;5.60;94.00;;;;;;923185;151;27528;-78
2023/03/15 00:37:48;;;;;;;3.33;1.97;;;5.50;94.00;;;;;;920921;151;27338;-79
2023/03/15 00:40:15;;;;;;;5.37;2.60;;;5.50;94.00;;;;;;925120;151;27291;-78
2023/03/15 00:42:48;;;;;;;4.33;2.60;;;5.40;94.20;;;;;;922767;151;27496;-78
2023/03/15 00:45:09;;;;;;;5.70;2.30;;;5.30;94.20;;;;;;922009;151;27481;-78
2023/03/15 00:47:34;;;;;;;3.73;2.20;;;5.30;94.30;;;;;;923172;151;27339;-78
2023/03/15 00:50:01;;;;;;;4.80;2.40;;;5.20;94.30;;;;;;922012;151;27432;-79
2023/03/15 00:52:28;;;;;;;4.17;2.27;;;5.10;94.40;;;;;;923642;151;27364;-78
2023/03/15 00:54:54;;;;;;;6.10;2.20;;;5.00;94.40;;;;;;923007;151;27497;-78
2023/03/15 00:57:21;;;;;;;3.27;2.10;;;5.00;94.60;;;;;;924752;151;27323;-78
2023/03/15 00:59:47;;;;;;;2.43;2.10;;;4.90;94.60;;;;;;924313;151;27328;-78
2023/03/15 01:02:14;;;;;;;3.87;2.60;;;4.80;94.70;;;;;;922612;151;27360;-78
2023/03/15 01:04:40;;;;;;;4.17;2.20;;;4.80;94.70;;;;;;924545;151;27394;-78
2023/03/15 01:07:07;;;;;;;6.17;2.50;;;4.70;94.80;;;;;;924399;151;27325;-79
2023/03/15 01:09:34;;;;;;;3.83;2.17;;;4.60;94.90;;;;;;922052;151;27363;-79
2023/03/15 01:12:00;;;;;;;2.63;2.03;;;4.50;95.00;;;;;;922566;151;27392;-78
2023/03/15 01:14:27;;;;;;;3.40;2.43;;;4.50;95.10;;;;;;925392;151;27393;-78
2023/03/15 01:16:53;;;;;;;4.77;2.03;;;4.40;95.20;;;;;;922432;151;27423;-78
2023/03/15 01:19:20;;;;;;;3.57;1.73;;;4.40;95.20;;;;;;923514;151;27359;-78
2023/03/15 01:21:47;;;;;;;4.73;2.30;;;4.30;95.20;;;;;;925439;151;27451;-79
2023/03/15 01:24:13;;;;;;;4.07;2.13;;;4.30;95.30;;;;;;923698;151;27481;-78
2023/03/15 01:26:40;;;;;;;4.43;2.70;;;4.20;95.40;;;;;;923134;151;27435;-79
2023/03/15 01:29:06;;;;;;;2.93;2.33;;;4.20;95.50;;;;;;921697;151;27354;-78
2023/03/15 01:31:33;;;;;;;4.33;2.10;;;4.10;95.50;;;;;;922648;151;27376;-78
2023/03/15 01:33:59;;;;;;;3.73;2.30;;;4.10;95.50;;;;;;925003;151;27419;-78
2023/03/15 01:36:26;;;;;;;4.67;2.00;;;4.00;95.60;;;;;;926120;151;27433;-78
2023/03/15 01:38:53;;;;;;;6.60;2.73;;;4.00;95.60;;;;;;926861;151;27493;-78
2023/03/15 01:41:19;;;;;;;3.67;2.23;;;3.90;95.70;;;;;;926108;151;27444;-78
2023/03/15 01:43:49;;;;;;;3.63;2.40;;;3.90;95.80;;;;;;926440;151;27307;-78
2023/03/15 01:46:24;;;;;;;2.80;1.60;;;3.80;95.80;;;;;;927413;151;27441;-78
2023/03/15 01:48:56;;;;;;;2.93;1.93;;;3.80;95.90;;;;;;924979;151;27790;-78
2023/03/15 01:51:41;;;;;;;2.33;2.10;;;3.80;95.90;;;;;;923790;151;27381;-79
2023/03/15 01:54:23;;;;;;;3.50;2.07;;;3.70;96.00;;;;;;926813;151;27390;-78
2023/03/15 01:56:52;;;;;;;4.97;2.77;;;3.70;96.10;;;;;;925781;151;27378;-78
2023/03/15 01:59:21;;;;;;;2.47;2.00;;;3.70;96.40;;;;;;925562;151;27326;-78
2023/03/15 02:01:48;;;;;;;5.20;1.77;;;3.60;96.40;;;;;;925340;151;27392;-78
2023/03/15 02:04:17;;;;;;;4.27;2.20;;;3.60;96.50;;;;;;927598;151;27483;-79
2023/03/15 02:06:45;;;;;;;4.70;2.07;;;3.60;96.50;;;;;;924123;151;28912;-79
2023/03/15 02:09:13;;;;;;;7.17;1.80;;;3.50;96.60;;;;;;925243;151;27454;-78
2023/03/15 02:11:37;;;;;;;3.23;1.93;;;3.50;96.70;;;;;;924753;151;27369;-78
2023/03/15 02:14:03;;;;;;;3.37;2.00;;;3.60;96.90;;;;;;925071;151;27403;-78
2023/03/15 02:16:30;;;;;;;3.60;1.80;;;3.50;96.90;;;;;;924161;151;27415;-78
2023/03/15 02:18:56;;;;;;;4.20;2.03;;;3.50;96.90;;;;;;927131;151;27339;-78
2023/03/15 02:21:41;;;;;;;4.80;1.93;;;3.50;96.90;;;;;;918270;153;27366;-78
2023/03/15 02:24:26;;;;;;;3.43;1.80;;;3.50;96.90;;;;;;909579;153;27517;-78
2023/03/15 02:26:53;;;;;;;3.23;1.80;;;3.50;96.90;;;;;;925289;151;27469;-79
2023/03/15 02:29:20;;;;;;;3.33;1.90;;;3.50;96.70;;;;;;941607;148;27457;-79
2023/03/15 02:31:46;;;;;;;4.33;1.93;;;3.50;96.80;;;;;;941037;148;27454;-78
2023/03/15 02:34:13;;;;;;;4.00;1.90;;;3.50;96.90;;;;;;942173;148;27305;-79
2023/03/15 02:36:39;;;;;;;2.87;1.70;;;3.50;97.00;;;;;;943108;148;27386;-78
2023/03/15 02:39:14;;;;;;;2.30;2.10;;;3.50;97.00;;;;;;925397;151;27450;-79
2023/03/15 02:41:41;;;;;;;4.70;2.00;;;3.50;97.00;;;;;;924193;151;27395;-79
2023/03/15 02:44:14;;;;;;;3.87;2.10;;;3.40;96.90;;;;;;911803;154;27320;-79
2023/03/15 02:46:40;;;;;;;2.67;2.00;;;3.40;97.00;;;;;;918829;152;27469;-79
2023/03/15 02:49:07;;;;;;;2.33;1.97;;;3.40;97.00;;;;;;903946;154;27427;-79
2023/03/15 02:51:33;;;;;;;2.40;1.80;;;3.40;97.10;;;;;;905415;154;27404;-79
2023/03/15 02:54:00;;;;;;;4.13;1.70;;;3.40;97.10;;;;;;905148;154;27474;-78
2023/03/15 02:56:27;;;;;;;3.73;1.83;;;3.40;97.20;;;;;;911393;154;27369;-79
2023/03/15 02:58:53;;;;;;;3.23;1.87;;;3.40;97.20;;;;;;903159;155;27430;-78
2023/03/15 03:01:20;;;;;;;2.37;1.30;;;3.40;97.20;;;;;;901843;155;27435;-79
2023/03/15 03:03:46;;;;;;;2.37;1.57;;;3.40;97.30;;;;;;903098;155;27307;-79
2023/03/15 03:06:13;;;;;;;6.17;1.83;;;3.40;97.40;;;;;;903956;153;27461;-79
2023/03/15 03:08:39;;;;;;;3.13;1.93;;;3.50;97.50;;;;;;903908;153;27442;-78
2023/03/15 03:11:06;;;;;;;3.37;1.87;;;3.50;97.50;;;;;;903333;154;27511;-79
2023/03/15 03:13:33;;;;;;;3.60;1.97;;;3.50;97.50;;;;;;918497;150;27479;-79
2023/03/15 03:15:59;;;;;;;3.30;1.47;;;3.50;97.50;;;;;;917212;152;27381;-79
2023/03/15 03:18:26;;;;;;;5.37;2.10;;;3.50;97.40;;;;;;904664;155;27358;-79
2023/03/15 03:20:55;;;;;;;3.13;1.60;;;3.50;97.40;;;;;;905460;154;27506;-79
2023/03/15 03:23:24;;;;;;;2.17;1.50;;;3.50;97.30;;;;;;902858;155;27403;-78
2023/03/15 03:25:48;;;;;;;6.00;2.37;;;3.50;97.30;;;;;;919144;150;27308;-79
2023/03/15 03:28:15;;;;;;;3.23;2.07;;;3.50;97.40;;;;;;919759;152;27321;-79
2023/03/15 03:30:41;;;;;;;2.17;1.47;;;3.50;97.40;;;;;;920284;152;27473;-79
2023/03/15 03:33:08;;;;;;;1.83;1.67;;;3.50;97.40;;;;;;920348;152;27478;-79
2023/03/15 03:35:35;;;;;;;3.73;1.60;;;3.50;97.30;;;;;;918566;152;27296;-79
2023/03/15 03:38:01;;;;;;;3.07;1.97;;;3.50;97.60;;;;;;902721;155;27440;-79
2023/03/15 03:40:28;;;;;;;3.23;1.90;;;3.50;97.20;;;;;;903669;155;27520;-75
2023/03/15 03:42:54;;;;;;;3.47;1.70;;;3.50;97.30;;;;;;904477;154;27493;-75
2023/03/15 03:45:21;;;;;;;3.10;2.00;;;3.50;97.20;;;;;;911337;154;27323;-75
2023/03/15 03:47:49;;;;;;;1.97;1.57;;;3.50;97.20;;;;;;903085;155;27374;-75
2023/03/15 03:50:14;;;;;;;2.10;1.87;;;3.50;97.10;;;;;;903685;154;27473;-74
2023/03/15 03:52:42;;;;;;;2.80;1.70;;;3.50;97.00;;;;;;919276;152;27401;-74
2023/03/15 03:55:07;;;;;;;3.20;1.50;;;3.50;97.10;;;;;;919484;152;27318;-74
2023/03/15 03:57:34;;;;;;;3.73;1.63;;;3.50;97.20;;;;;;902861;153;27460;-78
2023/03/15 04:00:00;;;;;;;3.70;1.83;;;3.50;97.20;;;;;;906972;154;27385;-79
2023/03/15 04:02:27;;;;;;;2.27;1.67;;;3.50;97.40;;;;;;902335;155;27423;-79
2023/03/15 04:04:54;;;;;;;3.30;2.00;;;3.50;97.40;;;;;;902618;153;27414;-79
2023/03/15 04:07:20;;;;;;;2.93;2.30;;;3.50;97.60;;;;;;904046;155;27391;-79
2023/03/15 04:09:47;;;;;;;3.57;1.43;;;3.50;97.70;;;;;;917561;151;27378;-79
2023/03/15 04:12:13;;;;;;;2.23;1.90;;;3.50;97.70;;;;;;917598;151;27524;-79
2023/03/15 04:14:40;;;;;;;3.07;1.87;;;3.60;97.80;;;;;;922688;151;27423;-79
2023/03/15 04:17:07;;;;;;;2.57;1.80;;;3.60;97.80;;;;;;938495;148;27327;-79
2023/03/15 04:19:33;;;;;;;3.10;1.57;;;3.60;97.80;;;;;;924511;151;27366;-79
2023/03/15 04:22:05;;;;;;;4.93;2.20;;;3.70;97.80;;;;;;904163;153;27349;-79
2023/03/15 04:24:26;;;;;;;5.40;2.30;;;3.70;97.70;;;;;;917313;152;27386;-79
2023/03/15 04:26:56;;;;;;;1.80;1.70;;;3.70;97.60;;;;;;902129;155;27391;-79
2023/03/15 04:29:20;;;;;;;3.07;1.97;;;3.70;97.50;;;;;;904089;153;27436;-79
2023/03/15 04:31:46;;;;;;;4.73;1.80;;;3.70;97.40;;;;;;911448;153;27498;-79
2023/03/15 04:34:13;;;;;;;3.07;1.73;;;3.70;97.30;;;;;;901547;155;27538;-79
2023/03/15 04:36:41;;;;;;;3.53;2.87;;;3.70;97.30;;;;;;903865;153;27451;-79
2023/03/15 04:39:06;;;;;;;2.40;1.80;;;3.70;97.40;;;;;;914787;153;28155;-78
2023/03/15 04:41:35;;;;;;;2.80;1.70;;;3.70;97.40;;;;;;923455;150;27355;-79
2023/03/15 04:43:59;;;;;;;3.43;1.60;;;3.70;97.40;;;;;;909695;153;27404;-79
2023/03/15 04:46:26;;;;;;;3.03;1.70;;;3.70;97.50;;;;;;910531;153;27412;-79
2023/03/15 04:48:52;;;;;;;3.40;2.00;;;3.70;97.50;;;;;;928469;150;27339;-79
2023/03/15 04:51:19;;;;;;;6.30;2.33;;;3.70;97.60;;;;;;925289;151;27394;-79
2023/03/15 04:53:45;;;;;;;2.33;1.73;;;3.70;97.70;;;;;;928580;150;27474;-78
2023/03/15 04:56:12;;;;;;;1.23;1.13;;;3.70;97.70;;;;;;929127;150;27495;-79
2023/03/15 04:58:38;;;;;;;1.70;1.43;;;3.80;97.80;;;;;;928386;150;27343;-78
2023/03/15 05:01:05;;;;;;;2.97;1.70;;;3.80;97.80;;;;;;926678;150;27379;-78
2023/03/15 05:03:32;;;;;;;2.90;1.87;;;3.80;97.80;;;;;;927493;150;27356;-79
2023/03/15 05:05:58;;;;;;;2.90;2.27;;;3.90;97.90;;;;;;930142;150;27407;-79
2023/03/15 05:08:25;;;;;;;5.63;1.90;;;3.90;97.90;;;;;;926897;150;27845;-79
2023/03/15 05:10:51;;;;;;;3.43;1.80;;;3.90;97.90;;;;;;928420;150;27817;-79
2023/03/15 05:13:19;;;;;;;3.97;1.87;;;4.00;97.90;;;;;;929857;150;27469;-79
2023/03/15 05:15:45;;;;;;;2.90;2.07;;;4.00;97.90;;;;;;927049;150;27389;-78
2023/03/15 05:18:11;;;;;;;3.00;1.60;;;4.00;97.90;;;;;;926802;150;27804;-78
2023/03/15 05:20:38;;;;;;;2.17;1.50;;;4.10;97.90;;;;;;927080;150;27419;-78
2023/03/15 05:23:04;;;;;;;5.33;2.23;;;4.10;97.90;;;;;;928421;150;27345;-78
2023/03/15 05:25:31;;;;;;;5.47;1.77;;;4.20;97.80;;;;;;926788;150;27497;-78
2023/03/15 05:27:57;;;;;;;2.37;1.67;;;4.20;97.80;;;;;;931554;150;27442;-78
2023/03/15 05:30:24;;;;;;;3.63;1.70;;;4.30;97.70;;;;;;924684;150;27437;-78
2023/03/15 05:32:51;;;;;;;2.23;1.60;;;4.30;97.60;;;;;;928970;150;27402;-79
2023/03/15 05:35:17;;;;;;;4.90;1.93;;;4.40;97.60;;;;;;929221;150;27340;-78
2023/03/15 05:37:44;;;;;;;6.63;2.23;;;4.40;97.50;;;;;;924913;150;27867;-78
2023/03/15 05:40:11;;;;;;;1.90;1.70;;;4.40;97.50;;;;;;921620;150;27455;-78
2023/03/15 05:42:37;;;;;;;6.63;2.47;;;4.50;97.50;;;;;;924221;151;27349;-79
2023/03/15 05:45:04;;;;;;;6.67;1.70;;;4.50;97.50;;;;;;923374;151;27319;-78
2023/03/15 05:47:30;;;;;;;3.17;1.80;;;4.60;97.40;;;;;;922136;151;27364;-78
2023/03/15 05:49:57;;;;;;;2.83;1.50;;;4.60;97.40;;;;;;924200;151;27411;-79
2023/03/15 05:52:25;;;;;;;3.27;2.03;;;4.60;97.40;;;;;;924804;151;27483;-79
2023/03/15 05:54:50;;;;;;;4.70;1.70;;;4.60;97.30;;;;;;922131;151;27476;-78
2023/03/15 05:57:17;;;;;;;4.63;1.93;;;4.70;97.40;;;;;;923074;151;27383;-79
2023/03/15 05:59:43;;;;;;;3.17;1.60;;;4.70;97.40;;;;;;924697;151;27423;-79
2023/03/15 06:02:10;;;;;;;4.50;2.43;;;4.80;97.30;;;;;;923708;151;27800;-79
2023/03/15 06:04:36;;;;;;;4.30;1.90;;;4.80;97.30;;;;;;922472;151;27407;-79
2023/03/15 06:07:03;;;;;;;2.60;1.67;;;4.90;97.30;;;;;;921432;151;27374;-79
2023/03/15 06:09:30;;;;;;;2.23;2.03;;;4.90;97.20;;;;;;921923;151;27422;-79
2023/03/15 06:11:57;;;;;;;2.63;1.70;;;5.00;97.20;;;;;;922937;151;27521;-78
2023/03/15 06:14:23;;;;;;;5.10;2.23;;;5.00;97.30;;;;;;922250;151;27473;-78
2023/03/15 06:16:49;;;;;;;5.03;2.00;;;5.00;97.20;;;;;;922481;151;27376;-78
2023/03/15 06:19:16;;;;;;;1.90;1.60;;;5.10;97.20;;;;;;922419;151;27401;-79
2023/03/15 06:21:43;;;;;;;5.23;1.93;;;5.10;97.10;;;;;;925894;151;27394;-78
2023/03/15 06:24:09;;;;;;;3.03;2.00;;;5.10;97.00;;;;;;921832;151;27501;-79
2023/03/15 06:26:36;;;;;;;2.60;1.73;;;5.20;96.90;;;;;;918842;151;27488;-79
2023/03/15 06:29:02;;;;;;;2.67;1.57;;;5.20;96.80;;;;;;901847;155;27430;-79
2023/03/15 06:31:29;;;;;;;3.90;1.80;;;5.20;96.30;;;;;;905754;154;27421;-79
2023/03/15 06:33:55;;;;;;;4.83;1.90;;;5.20;96.60;;;;;;902606;154;27957;-79
2023/03/15 06:36:23;;;;;;;4.50;1.67;;;5.20;96.50;;;;;;923444;151;27364;-79
2023/03/15 06:38:49;;;;;;;3.77;1.83;;;5.20;96.40;;;;;;940062;148;27265;-79
2023/03/15 06:41:15;;;;;;;5.50;2.43;;;5.10;96.40;;;;;;924012;150;27485;-78
2023/03/15 06:43:42;;;;;;;6.70;1.90;;;5.10;96.50;;;;;;909491;153;27407;-79
2023/03/15 06:46:08;;;;;;;3.37;1.67;;;5.10;96.60;;;;;;907627;154;27915;-79
2023/03/15 06:48:35;;;;;;;4.40;2.00;;;5.00;96.80;;;;;;945098;147;27293;-79
2023/03/15 06:51:04;;;;;;;3.60;2.30;;;5.00;96.90;;;;;;943700;147;27313;-79
2023/03/15 06:53:28;;;;;;;4.10;3.20;;;5.00;97.10;;;;;;943844;148;27400;-78
2023/03/15 06:55:55;;;;;;;3.70;2.53;;;5.00;97.30;;;;;;945297;148;27404;-78
2023/03/15 06:58:21;;;;;;;2.97;2.00;;;5.10;97.50;;;;;;943496;148;27787;-78
2023/03/15 07:00:48;;;;;;;9.47;5.43;;;5.00;97.60;;;;;;943347;148;27698;-79
2023/03/15 07:03:14;;;;;;;10.07;6.40;;;5.10;97.80;;;;;;942876;147;27347;-78
2023/03/15 07:05:41;;;;;;;6.60;3.90;;;5.10;97.80;;;;;;944360;148;27377;-78
2023/03/15 07:08:08;;;;;;;4.10;2.73;;;5.10;97.80;;;;;;945094;148;27458;-78
2023/03/15 07:10:35;;;;;;;6.93;4.23;;;5.10;97.90;;;;;;943065;148;27389;-78
2023/03/15 07:13:01;;;;;;;4.63;3.07;;;5.20;98.00;;;;;;944546;148;27316;-79
2023/03/15 07:15:27;;;;;;;6.43;3.47;;;5.20;98.10;;;;;;945239;148;27400;-79
2023/03/15 07:17:54;;;;;;;7.10;4.37;;;5.20;98.20;;;;;;944532;148;27352;-79
2023/03/15 07:20:21;;;;;;;4.83;3.37;;;5.30;98.30;;;;;;943822;147;27463;-78
2023/03/15 07:22:48;;;;;;;8.33;5.00;;;5.30;98.30;;;;;;943498;147;27374;-79
2023/03/15 07:25:14;;;;;;;7.87;3.97;;;5.30;98.30;;;;;;943518;148;27451;-79
2023/03/15 07:27:40;;;;;;;7.23;3.40;;;5.40;98.30;;;;;;942396;148;27302;-78
2023/03/15 07:30:08;;;;;;;4.07;2.73;;;5.40;98.30;;;;;;945665;148;27335;-79
2023/03/15 07:32:34;;;;;;;6.17;2.57;;;5.50;98.30;;;;;;944182;148;27422;-79
2023/03/15 07:35:00;;;;;;;4.47;3.00;;;5.50;98.30;;;;;;946225;148;27461;-75
2023/03/15 07:37:30;;;;;;;4.83;2.73;;;5.60;98.40;;;;;;942395;148;27773;-74
2023/03/15 07:39:59;;;;;;;4.53;2.77;;;5.60;98.40;;;;;;909832;153;27395;-75
2023/03/15 07:42:23;;;;;;;4.03;2.80;;;5.60;98.30;;;;;;930699;150;27393;-75
2023/03/15 07:44:49;;;;;;;9.07;3.10;;;5.70;98.10;;;;;;931735;150;27500;-75
2023/03/15 07:47:16;;;;;;;4.57;2.67;;;5.70;98.00;;;;;;930170;150;27493;-75
2023/03/15 07:49:43;;;;;;;4.33;2.67;;;5.80;98.00;;;;;;931255;150;27300;-75
2023/03/15 07:52:09;;;;;;;6.73;3.23;;;5.80;98.20;;;;;;929569;150;27378;-75
2023/03/15 07:54:36;;;;;;;3.70;3.10;;;5.80;98.40;;;;;;931622;150;27334;-75
2023/03/15 07:57:02;;;;;;;5.27;3.43;;;5.90;98.50;;;;;;931886;150;27385;-75
2023/03/15 07:59:29;;;;;;;5.20;3.60;;;6.00;98.70;;;;;;930831;150;27499;-75
2023/03/15 08:01:56;;;;;;;6.40;3.03;;;6.00;98.60;;;;;;929546;150;27460;-75
2023/03/15 08:04:22;;;;;;;4.73;3.10;;;6.10;98.50;;;;;;931800;150;27350;-75
2023/03/15 08:06:49;;;;;;;4.00;2.63;;;6.20;98.50;;;;;;932114;150;27519;-75
2023/03/15 08:09:15;;;;;;;4.33;3.20;;;6.20;98.40;;;;;;930503;150;27421;-75
2023/03/15 08:11:42;;;;;;;6.93;3.13;;;6.30;98.20;;;;;;931293;150;27456;-75
2023/03/15 08:14:08;;;;;;;4.70;3.30;;;6.30;98.10;;;;;;931784;150;27363;-75
2023/03/15 08:16:35;;;;;;;7.13;3.27;;;6.40;98.20;;;;;;928312;150;27448;-75
2023/03/15 08:19:02;;;;;;;3.43;3.07;;;6.50;98.30;;;;;;930768;150;27520;-75
2023/03/15 08:21:28;;;;;;;5.50;3.17;;;6.50;98.40;;;;;;928823;150;27365;-75
2023/03/15 08:23:55;;;;;;;6.67;3.20;;;6.60;98.40;;;;;;931569;150;27342;-75
2023/03/15 08:26:21;;;;;;;7.13;4.00;;;6.70;98.50;;;;;;931442;150;27403;-75
2023/03/15 08:28:48;;;;;;;7.00;4.17;;;6.80;98.70;;;;;;931252;150;27376;-75
2023/03/15 08:31:15;;;;;;;6.00;3.97;;;6.90;98.60;;;;;;929502;150;27510;-74
2023/03/15 08:33:41;;;;;;;4.37;3.80;;;7.00;98.30;;;;;;930425;150;27423;-75
2023/03/15 08:36:08;;;;;;;5.30;3.53;;;7.10;98.10;;;;;;931030;150;27390;-74
2023/03/15 08:38:34;;;;;;;5.20;3.60;;;7.10;97.70;;;;;;930191;150;27383;-74
2023/03/15 08:41:02;;;;;;;6.77;4.17;;;7.20;97.90;;;;;;929703;150;27636;-75
2023/03/15 08:43:27;;;;;;;7.37;4.37;;;7.30;98.50;;;;;;926597;151;27371;-74
2023/03/15 08:45:54;;;;;;;6.97;3.73;;;7.50;98.80;;;;;;925106;151;27390;-74
2023/03/15 08:48:21;;;;;;;5.07;3.60;;;7.60;98.50;;;;;;926138;151;27375;-74
2023/03/15 08:50:47;;;;;;;4.87;3.47;;;7.70;98.30;;;;;;924942;151;27390;-76
2023/03/15 08:53:14;;;;;;;6.23;3.97;;;7.90;97.80;;;;;;926001;151;27409;-74
2023/03/15 08:55:40;;;;;;;7.47;3.50;;;8.00;97.40;;;;;;926023;151;27460;-74
2023/03/15 08:58:07;;;;;;;7.07;4.07;;;8.10;96.70;;;;;;928097;151;27342;-73
2023/03/15 09:00:34;;;;;;;4.30;3.67;;;8.10;96.40;;;;;;925699;151;27506;-74
2023/03/15 09:03:00;;;;;;;6.20;4.33;;;8.10;96.20;;;;;;924984;151;27397;-74
2023/03/15 09:05:27;;;;;;;5.37;4.40;;;8.20;95.90;;;;;;926807;151;27400;-75
2023/03/15 09:07:54;;;;;;;6.37;4.10;;;8.20;95.80;;;;;;925506;151;27738;-75
2023/03/15 09:10:20;;;;;;;6.33;4.33;;;8.30;96.30;;;;;;908655;153;27470;-75
2023/03/15 09:12:46;;;;;;;6.23;4.27;;;8.30;96.60;;;;;;926487;150;27395;-74
2023/03/15 09:15:13;;;;;;;6.67;3.87;;;8.40;96.50;;;;;;927939;150;27381;-75
2023/03/15 09:17:40;;;;;;;6.10;4.37;;;8.50;96.30;;;;;;911542;153;27414;-74
2023/03/15 09:20:13;;;;;;;7.10;4.33;;;8.60;95.90;;;;;;909529;153;27483;-75
2023/03/15 09:22:35;;;;;;;5.43;3.57;;;8.60;95.40;;;;;;925642;151;27442;-74
2023/03/15 09:25:02;;;;;;;4.77;3.93;;;8.70;95.00;;;;;;925173;151;27383;-74
2023/03/15 09:27:31;;;;;;;5.53;3.90;;;8.70;95.10;;;;;;917826;153;27398;-74
2023/03/15 09:29:58;;;;;;;8.33;4.40;;;8.70;94.60;;;;;;913025;153;27436;-74
2023/03/15 09:32:24;;;;;;;8.60;5.37;;;8.70;94.50;;;;;;927451;150;27403;-74
2023/03/15 09:34:51;;;;;;;5.27;3.80;;;8.70;94.50;;;;;;927160;151;27374;-74
2023/03/15 09:37:19;;;;;;;6.47;4.43;;;8.70;94.50;;;;;;926539;151;27333;-74
2023/03/15 09:39:44;;;;;;;5.40;4.13;;;8.70;94.60;;;;;;925599;151;27936;-74
2023/03/15 09:42:11;;;;;;;7.60;4.07;;;8.80;94.80;;;;;;926203;151;27430;-75
2023/03/15 09:44:50;;;;;;;7.23;4.13;;;8.80;95.00;;;;;;921904;151;27471;-74
2023/03/15 09:47:36;;;;;;;6.67;4.30;;;8.90;95.30;;;;;;923684;151;27331;-74
2023/03/15 09:50:06;;;;;;;6.13;3.97;;;8.90;95.50;;;;;;921794;150;27412;-75
2023/03/15 09:52:43;;;;;;;6.90;4.37;;;9.00;95.30;;;;;;911250;151;27388;-74
2023/03/15 09:55:23;;;;;;;6.43;4.23;;;9.10;95.20;;;;;;922678;151;27339;-74
2023/03/15 09:57:55;;;;;;;6.77;4.00;;;9.20;94.80;;;;;;922279;151;27792;-74
2023/03/15 10:00:40;;;;;;;6.73;4.57;;;9.30;94.40;;;;;;922931;151;27370;-74
2023/03/15 10:03:08;;;;;;;7.07;4.20;;;9.30;93.80;;;;;;920551;151;27427;-76
2023/03/15 10:05:36;;;;;;;7.20;4.67;;;9.30;93.50;;;;;;924877;151;27402;-76
2023/03/15 10:08:03;;;;;;;4.97;3.93;;;9.30;93.30;;;;;;922628;151;27451;-74
2023/03/15 10:10:32;;;;;;;7.60;3.50;;;9.30;93.10;;;;;;922076;151;27373;-74
2023/03/15 10:13:14;;;;;;;4.47;3.30;;;9.30;93.10;;;;;;922280;151;27422;-74
2023/03/15 10:15:50;;;;;;;4.60;3.30;;;9.30;93.50;;;;;;938969;148;27460;-73
2023/03/15 10:18:35;;;;;;;3.77;2.90;;;9.30;93.80;;;;;;938813;148;27990;-74
2023/03/15 10:21:04;;;;;;;4.90;3.37;;;9.40;94.30;;;;;;925433;151;27477;-73
2023/03/15 10:23:46;;;;;;;4.10;2.97;;;9.50;95.20;;;;;;922235;151;27516;-74
2023/03/15 10:26:13;;;;;;;3.03;2.73;;;9.60;95.90;;;;;;922527;151;27500;-74
2023/03/15 10:28:39;;;;;;;3.13;2.83;;;9.80;96.50;;;;;;940329;148;27386;-73
2023/03/15 10:31:09;;;;;;;3.50;2.77;;;10.10;96.30;;;;;;926268;151;27498;-73
2023/03/15 10:33:35;;;;;;;4.07;3.10;;;10.30;95.60;;;;;;925387;151;27388;-74
2023/03/15 10:36:03;;;;;;;4.40;3.17;;;10.50;94.80;;;;;;919987;150;27408;-73
2023/03/15 10:38:29;;;;;;;4.13;3.20;;;10.70;93.80;;;;;;902516;154;27446;-73
2023/03/15 10:40:55;;;;;;;3.93;3.00;;;10.80;93.30;;;;;;924715;151;27460;-73
2023/03/15 10:43:22;;;;;;;5.47;3.43;;;10.90;92.80;;;;;;938505;148;27461;-73
2023/03/15 10:46:00;;;;;;;4.63;3.07;;;11.10;92.70;;;;;;922956;151;27450;-74
2023/03/15 10:48:27;;;;;;;4.37;2.63;;;11.10;92.50;;;;;;903375;155;27527;-74
2023/03/15 10:50:54;;;;;;;3.30;2.50;;;11.30;92.10;;;;;;902099;155;27411;-76
2023/03/15 10:53:21;;;;;;;3.70;2.70;;;11.30;91.20;;;;;;911666;154;27380;-76
2023/03/15 10:55:47;;;;;;;2.57;2.37;;;11.30;90.50;;;;;;903341;154;27344;-75
2023/03/15 10:58:30;;;;;;;3.17;2.23;;;11.40;90.00;;;;;;922133;151;27512;-74
2023/03/15 11:01:01;;;;;;;3.97;2.70;;;11.30;88.90;;;;;;940909;148;27518;-75
2023/03/15 11:03:27;;;;;;;4.70;2.80;;;11.30;88.40;;;;;;940047;148;27368;-75
2023/03/15 11:05:54;;;;;;;6.27;3.10;;;11.30;88.20;;;;;;911730;154;27376;-74
2023/03/15 11:08:23;;;;;;;3.47;2.77;;;11.20;88.30;;;;;;902329;154;27486;-75
2023/03/15 11:10:55;;;;;;;3.77;3.00;;;11.20;88.30;;;;;;923302;151;27910;-75
2023/03/15 11:13:22;;;;;;;4.23;2.70;;;11.20;88.30;;;;;;940966;148;27479;-75
2023/03/15 11:16:07;;;;;;;3.57;2.87;;;11.20;88.30;;;;;;909004;154;27381;-74
2023/03/15 11:18:33;;;;;;;3.67;2.90;;;11.20;88.30;;;;;;901974;155;27417;-75
2023/03/15 11:20:59;;;;;;;4.77;2.80;;;11.20;88.30;;;;;;910220;154;27357;-74
2023/03/15 11:23:29;;;;;;;4.50;3.07;;;11.20;88.50;;;;;;916649;152;27908;-74
2023/03/15 11:25:55;;;;;;;3.30;3.00;;;11.20;88.30;;;;;;902031;155;27346;-74
2023/03/15 11:28:22;;;;;;;3.87;2.73;;;11.30;89.10;;;;;;918695;152;27867;-74
2023/03/15 11:30:49;;;;;;;3.10;2.70;;;11.40;89.60;;;;;;903360;155;27417;-74
2023/03/15 11:33:18;;;;;;;2.77;2.57;;;11.50;89.60;;;;;;918574;152;27487;-75
2023/03/15 11:35:47;;;;;;;3.67;2.40;;;11.60;89.20;;;;;;901435;155;27430;-74
2023/03/15 11:38:11;;;;;;;1.93;1.83;;;11.70;88.70;;;;;;903872;155;27483;-74
2023/03/15 11:40:37;;;;;;;2.20;1.90;;;11.70;87.80;;;;;;903408;154;27394;-74
2023/03/15 11:43:07;;;;;;;2.13;1.70;;;11.80;87.50;;;;;;917546;152;27429;-75
2023/03/15 11:45:36;;;;;;;2.13;1.60;;;11.80;87.50;;;;;;925533;151;27382;-74
2023/03/15 11:48:17;;;;;;;4.60;2.30;;;11.90;87.80;;;;;;920609;152;27382;-76
2023/03/15 11:50:44;;;;;;;2.57;1.70;;;12.00;88.40;;;;;;923510;151;27316;-75
2023/03/15 11:53:11;;;;;;;2.53;2.33;;;12.10;88.10;;;;;;918907;152;27695;-75
2023/03/15 11:55:37;;;;;;;1.80;1.70;;;12.20;87.30;;;;;;911236;154;27411;-75
2023/03/15 11:58:28;;;;;;;2.90;2.00;;;12.30;86.40;;;;;;902761;155;28137;-75
2023/03/15 12:00:54;;;;;;;2.07;1.93;;;12.30;85.00;;;;;;872775;160;27474;-76
2023/03/15 12:03:36;;;;;;;2.03;1.93;;;12.30;83.70;;;;;;930113;148;27358;-76
2023/03/15 12:05:59;;;;;;;1.67;1.57;;;12.30;82.60;;;;;;902634;155;27442;-76
2023/03/15 12:08:34;;;;;;;2.37;1.80;;;12.30;82.00;;;;;;905118;154;27450;-76
2023/03/15 12:10:58;;;;;;;1.80;1.67;;;12.20;82.00;;;;;;902112;155;27504;-75
2023/03/15 12:13:28;;;;;;;2.00;1.80;;;12.20;82.10;;;;;;905288;154;27357;-75
2023/03/15 12:15:54;;;;;;;2.00;1.90;;;12.20;82.10;;;;;;916996;152;27505;-76
2023/03/15 12:18:21;;;;;;;2.10;1.90;;;12.20;81.70;;;;;;900652;155;27517;-75
2023/03/15 12:21:09;;;;;;;1.80;1.70;;;12.20;81.30;;;;;;903859;154;27494;-75
2023/03/15 12:23:41;;;;;;;1.83;1.73;;;12.20;81.50;;;;;;918168;152;27352;-76
2023/03/15 12:26:09;;;;;;;1.87;1.77;;;12.20;81.40;;;;;;904117;155;27494;-76
2023/03/15 12:28:37;;;;;;;1.70;1.60;;;12.20;80.70;;;;;;918188;152;27543;-75
2023/03/15 12:31:04;;;;;;;1.83;1.73;;;12.30;80.40;;;;;;923864;151;27378;-77
2023/03/15 12:33:30;;;;;;;2.13;1.80;;;12.30;80.50;;;;;;905728;154;27475;-76
2023/03/15 12:36:04;;;;;;;1.77;1.50;;;12.30;80.50;;;;;;917909;152;27442;-76
2023/03/15 12:38:35;;;;;;;1.57;1.47;;;12.40;80.20;;;;;;902504;155;27439;-76
2023/03/15 12:41:02;;;;;;;2.43;1.60;;;12.50;79.90;;;;;;918489;152;27529;-76
2023/03/15 12:43:43;;;;;;;1.50;1.40;;;12.60;79.20;;;;;;911887;153;27385;-75
2023/03/15 12:46:37;;;;;;;1.80;1.70;;;12.60;78.70;;;;;;918499;151;27371;-76
2023/03/15 12:49:13;;;;;;;1.80;1.70;;;12.70;78.90;;;;;;924253;151;27391;-76
2023/03/15 12:51:55;;;;;;;1.70;1.60;;;12.80;79.90;;;;;;922966;153;27487;-76
2023/03/15 12:54:22;;;;;;;2.10;1.90;;;12.80;78.70;;;;;;910882;153;27427;-76
2023/03/15 12:56:50;;;;;;;1.97;1.83;;;12.90;78.00;;;;;;911369;152;27327;-75
2023/03/15 12:59:29;;;;;;;1.50;1.40;;;12.90;77.10;;;;;;909058;153;27480;-75